createdAt,value
2018-06-04T00:00:50.566Z,63.61
2018-06-04T00:01:50.532Z,63.75
2018-06-04T00:02:50.543Z,63.13
2018-06-04T00:03:50.549Z,63.05
2018-06-04T00:04:50.584Z,63.51
2018-06-04T00:05:50.682Z,64.65
2018-06-04T00:06:50.555Z,64.99
2018-06-04T00:07:50.550Z,65.38
2018-06-04T00:08:50.557Z,65.44
2018-06-04T00:09:50.543Z,65.47
2018-06-04T00:10:50.541Z,65.02
2018-06-04T00:11:50.539Z,64.63
2018-06-04T00:12:50.523Z,65.58
2018-06-04T00:13:50.562Z,65.46
2018-06-04T00:14:50.516Z,65.24
2018-06-04T00:15:50.567Z,64.79
2018-06-04T00:16:50.534Z,65.31
2018-06-04T00:17:50.527Z,65.57
2018-06-04T00:18:50.511Z,65.47
2018-06-04T00:19:50.520Z,65.49
2018-06-04T00:20:50.645Z,65.48
2018-06-04T00:21:50.545Z,65.89
2018-06-04T00:22:50.514Z,64.99
2018-06-04T00:23:50.679Z,64.7
2018-06-04T00:24:50.572Z,65.26
2018-06-04T00:25:50.535Z,64.83
2018-06-04T00:26:50.527Z,65.54
2018-06-04T00:27:50.594Z,65.24
2018-06-04T00:28:50.544Z,65.06
2018-06-04T00:29:50.549Z,65.27
2018-06-04T00:30:50.612Z,65.45
2018-06-04T00:31:50.528Z,64.88
2018-06-04T00:32:50.536Z,64.79
2018-06-04T00:33:50.526Z,64.21
2018-06-04T00:34:50.523Z,64.6
2018-06-04T00:35:50.526Z,65.12
2018-06-04T00:36:50.539Z,65.23
2018-06-04T00:37:50.527Z,65.58
2018-06-04T00:38:50.515Z,65.2
2018-06-04T00:39:50.539Z,64.74
2018-06-04T00:40:50.517Z,64.49
2018-06-04T00:41:50.513Z,64.78
2018-06-04T00:42:50.526Z,64.74
2018-06-04T00:43:50.500Z,65.29
2018-06-04T00:44:50.534Z,65.27
2018-06-04T00:45:50.508Z,64.74
2018-06-04T00:46:50.500Z,65.62
2018-06-04T00:47:50.527Z,65.59
2018-06-04T00:48:50.537Z,65.03
2018-06-04T00:49:50.548Z,64.82
2018-06-04T00:50:50.514Z,65.01
2018-06-04T00:51:50.517Z,64.61
2018-06-04T00:52:50.514Z,65.11
2018-06-04T00:53:50.574Z,64.66
2018-06-04T00:54:50.518Z,64.8
2018-06-04T00:55:50.510Z,64.52
2018-06-04T00:56:50.557Z,64.58
2018-06-04T00:57:50.524Z,64.62
2018-06-04T00:58:50.560Z,64.79
2018-06-04T00:59:50.877Z,64.82
2018-06-04T01:00:50.687Z,64.81
2018-06-04T01:01:50.519Z,64.78
2018-06-04T01:02:50.530Z,64.29
2018-06-04T01:03:51.002Z,65.1
2018-06-04T01:04:50.533Z,65.14
2018-06-04T01:05:50.536Z,65.17
2018-06-04T01:06:50.641Z,65.3
2018-06-04T01:07:50.718Z,65.18
2018-06-04T01:08:50.679Z,64.62
2018-06-04T01:09:50.529Z,64.67
2018-06-04T01:10:50.490Z,65.15
2018-06-04T01:11:50.560Z,65.26
2018-06-04T01:12:50.565Z,64.97
2018-06-04T01:13:50.532Z,65.39
2018-06-04T01:14:50.539Z,65.41
2018-06-04T01:15:50.546Z,65.42
2018-06-04T01:16:50.640Z,65.39
2018-06-04T01:17:50.531Z,65.46
2018-06-04T01:18:50.812Z,64.88
2018-06-04T01:19:50.535Z,65.29
2018-06-04T01:20:50.821Z,64.66
2018-06-04T01:21:50.500Z,65.54
2018-06-04T01:22:50.550Z,65.15
2018-06-04T01:23:50.532Z,65.17
2018-06-04T01:24:50.528Z,65.37
2018-06-04T01:25:50.512Z,65.28
2018-06-04T01:26:50.515Z,65.31
2018-06-04T01:27:50.530Z,64.75
2018-06-04T01:28:50.505Z,64.84
2018-06-04T01:29:50.507Z,64.82
2018-06-04T01:30:50.517Z,65.34
2018-06-04T01:31:50.499Z,64.78
2018-06-04T01:32:50.701Z,65.38
2018-06-04T01:33:50.499Z,65.97
2018-06-04T01:34:50.504Z,65.05
2018-06-04T01:35:50.579Z,65.33
2018-06-04T01:36:50.582Z,65.72
2018-06-04T01:37:50.489Z,65.63
2018-06-04T01:38:50.514Z,65.45
2018-06-04T01:39:50.551Z,65.76
2018-06-04T01:40:50.480Z,65.69
2018-06-04T01:41:50.489Z,65.43
2018-06-04T01:42:50.500Z,65.6
2018-06-04T01:43:50.519Z,65.87
2018-06-04T01:44:51.164Z,65.49
2018-06-04T01:45:50.537Z,65.85
2018-06-04T01:46:50.524Z,66.16
2018-06-04T01:47:50.494Z,65.77
2018-06-04T01:48:50.510Z,65.69
2018-06-04T01:49:50.519Z,66.56
2018-06-04T01:50:50.529Z,66.07
2018-06-04T01:51:50.518Z,66.1
2018-06-04T01:52:50.494Z,66.02
2018-06-04T01:53:50.498Z,65.45
2018-06-04T01:54:50.493Z,66.32
2018-06-04T01:55:50.491Z,66.98
2018-06-04T01:56:50.520Z,67.22
2018-06-04T01:57:50.491Z,66.83
2018-06-04T01:58:50.554Z,67.02
2018-06-04T01:59:50.496Z,66.47
2018-06-04T02:00:50.521Z,67.22
2018-06-04T02:01:50.522Z,66.68
2018-06-04T02:02:50.508Z,67.33
2018-06-04T02:03:50.636Z,67.04
2018-06-04T02:04:50.505Z,67.28
2018-06-04T02:05:50.525Z,67.69
2018-06-04T02:06:50.501Z,67.87
2018-06-04T02:07:50.509Z,68.07
2018-06-04T02:08:50.484Z,67.72
2018-06-04T02:09:50.525Z,67.74
2018-06-04T02:10:50.495Z,68.23
2018-06-04T02:11:50.502Z,68.18
2018-06-04T02:12:50.513Z,68.12
2018-06-04T02:13:50.524Z,67.11
2018-06-04T02:14:50.525Z,68.21
2018-06-04T02:15:50.714Z,68.32
2018-06-04T02:16:50.486Z,68.6
2018-06-04T02:17:50.491Z,69.27
2018-06-04T02:18:50.515Z,68.84
2018-06-04T02:19:50.507Z,69.3
2018-06-04T02:20:50.512Z,68.68
2018-06-04T02:21:50.814Z,69.02
2018-06-04T02:22:50.534Z,69.58
2018-06-04T02:23:50.490Z,69.82
2018-06-04T02:24:50.485Z,69.75
2018-06-04T02:25:50.476Z,69.94
2018-06-04T02:26:50.494Z,69.99
2018-06-04T02:27:50.488Z,69.63
2018-06-04T02:28:50.487Z,69.83
2018-06-04T02:29:50.489Z,70.04
2018-06-04T02:30:50.505Z,69.92
2018-06-04T02:31:50.491Z,69.13
2018-06-04T02:32:50.492Z,69.87
2018-06-04T02:33:50.523Z,69.58
2018-06-04T02:34:50.502Z,69.09
2018-06-04T02:35:50.462Z,69.21
2018-06-04T02:36:50.464Z,70.04
2018-06-04T02:37:50.480Z,69.98
2018-06-04T02:38:50.464Z,69.46
2018-06-04T02:39:50.617Z,69.53
2018-06-04T02:40:50.487Z,69.74
2018-06-04T02:41:50.563Z,70.01
2018-06-04T02:42:50.591Z,70.34
2018-06-04T02:43:50.519Z,70.3
2018-06-04T02:44:50.670Z,70.02
2018-06-04T02:45:50.496Z,70.01
2018-06-04T02:46:50.530Z,69.82
2018-06-04T02:47:50.501Z,69.39
2018-06-04T02:48:50.484Z,70.32
2018-06-04T02:49:50.598Z,70.11
2018-06-04T02:50:50.562Z,70.46
2018-06-04T02:51:50.476Z,70.24
2018-06-04T02:52:50.478Z,70.24
2018-06-04T02:53:50.476Z,70.64
2018-06-04T02:54:50.481Z,70.92
2018-06-04T02:55:50.477Z,70.94
2018-06-04T02:56:50.497Z,70.98
2018-06-04T02:57:50.516Z,70.5
2018-06-04T02:58:50.498Z,71.38
2018-06-04T02:59:50.498Z,70.64
2018-06-04T03:00:50.489Z,71.02
2018-06-04T03:01:50.474Z,70.79
2018-06-04T03:02:50.489Z,70.8
2018-06-04T03:03:50.469Z,70.26
2018-06-04T03:04:50.448Z,71.06
2018-06-04T03:05:50.456Z,70.93
2018-06-04T03:06:50.478Z,70.97
2018-06-04T03:07:50.470Z,70.91
2018-06-04T03:08:50.480Z,70.3
2018-06-04T03:09:50.469Z,71.49
2018-06-04T03:10:50.485Z,70.83
2018-06-04T03:11:50.481Z,71.1
2018-06-04T03:12:50.474Z,71.36
2018-06-04T03:13:50.472Z,70.18
2018-06-04T03:14:50.466Z,71.41
2018-06-04T03:15:51.103Z,71.57
2018-06-04T03:16:50.482Z,71.12
2018-06-04T03:17:50.518Z,71.44
2018-06-04T03:18:50.742Z,71.46
2018-06-04T03:19:50.544Z,70.73
2018-06-04T03:20:50.469Z,71.04
2018-06-04T03:21:50.457Z,71.45
2018-06-04T03:22:50.537Z,72.1
2018-06-04T03:23:50.459Z,71.84
2018-06-04T03:24:50.488Z,71.29
2018-06-04T03:25:50.502Z,71.84
2018-06-04T03:26:50.491Z,72.37
2018-06-04T03:27:50.512Z,71.62
2018-06-04T03:28:50.498Z,71.56
2018-06-04T03:29:50.464Z,71.73
2018-06-04T03:30:50.468Z,71.19
2018-06-04T03:31:50.479Z,71.77
2018-06-04T03:32:50.484Z,71.15
2018-06-04T03:33:50.796Z,71.67
2018-06-04T03:34:50.492Z,71.91
2018-06-04T03:35:50.464Z,71.67
2018-06-04T03:36:50.651Z,71.48
2018-06-04T03:37:50.468Z,71.67
2018-06-04T03:38:50.635Z,71.13
2018-06-04T03:39:50.490Z,71.46
2018-06-04T03:40:50.640Z,71.38
2018-06-04T03:41:50.529Z,70.64
2018-06-04T03:42:50.474Z,71.46
2018-06-04T03:43:50.491Z,71.56
2018-06-04T03:44:50.472Z,71.3
2018-06-04T03:45:50.552Z,71.61
2018-06-04T03:46:50.479Z,71.52
2018-06-04T03:47:50.444Z,71.33
2018-06-04T03:48:50.560Z,71.47
2018-06-04T03:49:50.456Z,71.13
2018-06-04T03:50:50.493Z,71.78
2018-06-04T03:51:50.455Z,71.82
2018-06-04T03:52:50.461Z,71.61
2018-06-04T03:53:50.462Z,71.37
2018-06-04T03:54:50.724Z,71.09
2018-06-04T03:55:50.464Z,71.2
2018-06-04T03:56:50.463Z,71.04
2018-06-04T03:57:50.457Z,70.92
2018-06-04T03:58:50.476Z,72.48
2018-06-04T03:59:50.672Z,71.98
2018-06-04T04:00:50.481Z,71.76
2018-06-04T04:01:50.559Z,71.64
2018-06-04T04:02:50.470Z,72.55
2018-06-04T04:03:50.447Z,72.11
2018-06-04T04:04:50.458Z,71.88
2018-06-04T04:05:50.452Z,72.47
2018-06-04T04:06:50.451Z,72.64
2018-06-04T04:07:50.466Z,72.03
2018-06-04T04:08:50.484Z,71.29
2018-06-04T04:09:50.456Z,72.15
2018-06-04T04:10:50.465Z,72.19
2018-06-04T04:11:50.464Z,72.16
2018-06-04T04:12:50.465Z,72.44
2018-06-04T04:13:50.473Z,72.52
2018-06-04T04:14:50.443Z,72.64
2018-06-04T04:15:50.517Z,72.78
2018-06-04T04:16:50.448Z,73.05
2018-06-04T04:17:50.482Z,72.29
2018-06-04T04:18:50.471Z,72.81
2018-06-04T04:19:50.460Z,73.31
2018-06-04T04:20:50.458Z,73.12
2018-06-04T04:21:50.460Z,72.69
2018-06-04T04:22:50.452Z,73.09
2018-06-04T04:23:50.480Z,73.16
2018-06-04T04:24:50.824Z,73.11
2018-06-04T04:25:50.465Z,73.09
2018-06-04T04:26:50.619Z,73
2018-06-04T04:27:50.546Z,73.29
2018-06-04T04:28:50.581Z,73.19
2018-06-04T04:29:50.483Z,73.51
2018-06-04T04:30:50.430Z,73.67
2018-06-04T04:31:50.469Z,73.4
2018-06-04T04:32:50.522Z,73.78
2018-06-04T04:33:50.448Z,72.79
2018-06-04T04:34:50.437Z,72.98
2018-06-04T04:35:50.485Z,73.51
2018-06-04T04:36:50.459Z,72.73
2018-06-04T04:37:50.539Z,72.61
2018-06-04T04:38:50.504Z,72.45
2018-06-04T04:39:50.452Z,72.19
2018-06-04T04:40:50.549Z,72.1
2018-06-04T04:41:50.448Z,72.07
2018-06-04T04:42:50.452Z,71.94
2018-06-04T04:43:50.461Z,71.82
2018-06-04T04:44:50.424Z,72.33
2018-06-04T04:45:50.437Z,73.53
2018-06-04T04:46:50.459Z,73.1
2018-06-04T04:47:50.700Z,73.58
2018-06-04T04:48:50.435Z,73.75
2018-06-04T04:49:50.431Z,72.55
2018-06-04T04:50:50.415Z,72.67
2018-06-04T04:51:50.448Z,72.84
2018-06-04T04:52:50.444Z,72.64
2018-06-04T04:53:50.438Z,72.94
2018-06-04T04:54:50.448Z,73.39
2018-06-04T04:55:50.501Z,74.08
2018-06-04T04:56:50.444Z,74.51
2018-06-04T04:57:50.492Z,74.64
2018-06-04T04:58:50.451Z,73.82
2018-06-04T04:59:50.597Z,73.67
2018-06-04T05:00:50.421Z,72.88
2018-06-04T05:01:50.789Z,72.72
2018-06-04T05:02:50.462Z,73.92
2018-06-04T05:03:50.431Z,73.7
2018-06-04T05:04:50.443Z,74.01
2018-06-04T05:05:50.435Z,73.59
2018-06-04T05:06:50.593Z,73.41
2018-06-04T05:07:50.434Z,73.62
2018-06-04T05:08:50.448Z,73.67
2018-06-04T05:09:50.557Z,73.58
2018-06-04T05:10:50.845Z,73.47
2018-06-04T05:11:50.443Z,73.6
2018-06-04T05:12:50.475Z,73.24
2018-06-04T05:13:50.439Z,73.57
2018-06-04T05:14:50.426Z,73.94
2018-06-04T05:15:50.464Z,73.69
2018-06-04T05:16:50.411Z,73.65
2018-06-04T05:17:50.661Z,73.22
2018-06-04T05:18:50.505Z,73.21
2018-06-04T05:19:50.427Z,73.09
2018-06-04T05:20:50.409Z,73.12
2018-06-04T05:21:50.420Z,74.06
2018-06-04T05:22:50.428Z,74.21
2018-06-04T05:23:50.688Z,74.33
2018-06-04T05:24:50.425Z,74.4
2018-06-04T05:25:50.430Z,74.13
2018-06-04T05:26:50.461Z,74.87
2018-06-04T05:27:50.417Z,73.83
2018-06-04T05:28:50.437Z,73.31
2018-06-04T05:29:50.419Z,73.6
2018-06-04T05:30:50.410Z,74.55
2018-06-04T05:31:50.541Z,74.57
2018-06-04T05:32:50.424Z,75.04
2018-06-04T05:33:50.689Z,74.96
2018-06-04T05:34:50.736Z,74.4
2018-06-04T05:35:50.591Z,74.05
2018-06-04T05:36:50.428Z,73.92
2018-06-04T05:37:50.512Z,74.62
2018-06-04T05:38:50.521Z,74.53
2018-06-04T05:39:50.470Z,74.35
2018-06-04T05:40:50.468Z,74.28
2018-06-04T05:41:50.438Z,74.08
2018-06-04T05:42:50.517Z,74.3
2018-06-04T05:43:50.501Z,74.5
2018-06-04T05:44:50.416Z,74.28
2018-06-04T05:45:50.404Z,74.3
2018-06-04T05:46:50.463Z,74.41
2018-06-04T05:47:50.413Z,74.31
2018-06-04T05:48:50.692Z,74.71
2018-06-04T05:49:50.420Z,74.53
2018-06-04T05:50:50.425Z,74.14
2018-06-04T05:51:50.421Z,73.79
2018-06-04T05:52:50.446Z,74.04
2018-06-04T05:53:50.434Z,74.07
2018-06-04T05:54:50.551Z,74.09
2018-06-04T05:55:50.396Z,74.45
2018-06-04T05:56:50.411Z,74.66
2018-06-04T05:57:50.463Z,74.07
2018-06-04T05:58:50.435Z,74.36
2018-06-04T05:59:50.422Z,74.57
2018-06-04T06:00:50.634Z,75.24
2018-06-04T06:01:50.495Z,74.38
2018-06-04T06:02:50.436Z,73.66
2018-06-04T06:03:50.536Z,74.04
2018-06-04T06:04:50.455Z,73.82
2018-06-04T06:05:50.439Z,74.27
2018-06-04T06:06:50.444Z,74.05
2018-06-04T06:07:50.437Z,74.28
2018-06-04T06:08:50.447Z,74.14
2018-06-04T06:09:50.488Z,74.01
2018-06-04T06:10:50.436Z,74.17
2018-06-04T06:11:50.469Z,73.67
2018-06-04T06:12:50.400Z,73.84
2018-06-04T06:13:50.399Z,73.84
2018-06-04T06:14:50.456Z,73.62
2018-06-04T06:15:50.628Z,73.67
2018-06-04T06:16:50.399Z,73.65
2018-06-04T06:17:50.526Z,73.79
2018-06-04T06:18:50.406Z,73.67
2018-06-04T06:19:50.456Z,73.65
2018-06-04T06:20:50.417Z,73.85
2018-06-04T06:21:50.423Z,73.68
2018-06-04T06:22:50.432Z,73.61
2018-06-04T06:23:50.395Z,73.81
2018-06-04T06:24:50.426Z,73.11
2018-06-04T06:25:50.391Z,73.48
2018-06-04T06:26:50.404Z,73.5
2018-06-04T06:27:50.397Z,72.17
2018-06-04T06:28:50.416Z,72.09
2018-06-04T06:29:50.422Z,71.76
2018-06-04T06:30:50.533Z,72.32
2018-06-04T06:31:50.432Z,71.94
2018-06-04T06:32:50.401Z,71.78
2018-06-04T06:33:50.678Z,72.1
2018-06-04T06:34:50.425Z,72.6
2018-06-04T06:35:50.402Z,72.1
2018-06-04T06:36:50.408Z,72.4
2018-06-04T06:37:50.425Z,71.66
2018-06-04T06:38:50.446Z,71.53
2018-06-04T06:39:50.376Z,71.57
2018-06-04T06:40:50.389Z,72.05
2018-06-04T06:41:50.399Z,71.64
2018-06-04T06:42:50.374Z,71.48
2018-06-04T06:43:50.381Z,71.54
2018-06-04T06:44:50.484Z,71.94
2018-06-04T06:45:51.020Z,71.79
2018-06-04T06:46:50.429Z,71.67
2018-06-04T06:47:50.395Z,71.48
2018-06-04T06:48:50.395Z,71.63
2018-06-04T06:49:50.428Z,71.46
2018-06-04T06:50:50.397Z,71.7
2018-06-04T06:51:50.433Z,71.79
2018-06-04T06:52:50.426Z,72.07
2018-06-04T06:53:50.441Z,71.76
2018-06-04T06:54:50.383Z,71.61
2018-06-04T06:55:50.386Z,71.46
2018-06-04T06:56:50.444Z,70.61
2018-06-04T06:57:50.380Z,70.78
2018-06-04T06:58:50.445Z,70.58
2018-06-04T06:59:50.428Z,70.85
2018-06-04T07:00:50.399Z,71.2
2018-06-04T07:01:50.456Z,70.92
2018-06-04T07:02:50.405Z,70.66
2018-06-04T07:03:50.394Z,70.69
2018-06-04T07:04:50.408Z,70.77
2018-06-04T07:05:50.437Z,70.34
2018-06-04T07:06:50.429Z,70.01
2018-06-04T07:07:50.370Z,69.97
2018-06-04T07:08:50.389Z,70.55
2018-06-04T07:09:50.476Z,69.96
2018-06-04T07:10:50.558Z,70.09
2018-06-04T07:11:50.419Z,69.85
2018-06-04T07:12:50.368Z,70.33
2018-06-04T07:13:50.386Z,70.39
2018-06-04T07:14:50.438Z,69.62
2018-06-04T07:15:50.460Z,70.13
2018-06-04T07:16:50.451Z,69.6
2018-06-04T07:17:50.398Z,69.08
2018-06-04T07:18:50.407Z,69.46
2018-06-04T07:19:50.380Z,69.63
2018-06-04T07:20:50.410Z,69.25
2018-06-04T07:21:50.430Z,70.04
2018-06-04T07:22:50.386Z,69.83
2018-06-04T07:23:50.370Z,70.22
2018-06-04T07:24:50.383Z,69.94
2018-06-04T07:25:50.484Z,69.23
2018-06-04T07:26:50.403Z,69.18
2018-06-04T07:27:50.510Z,69.49
2018-06-04T07:28:50.425Z,69.06
2018-06-04T07:29:50.427Z,68.76
2018-06-04T07:30:50.411Z,68.97
2018-06-04T07:31:50.390Z,69.03
2018-06-04T07:32:50.445Z,68.02
2018-06-04T07:33:50.385Z,68.33
2018-06-04T07:34:50.465Z,68.66
2018-06-04T07:35:50.363Z,68.43
2018-06-04T07:36:50.445Z,68.16
2018-06-04T07:37:50.376Z,67.83
2018-06-04T07:38:50.369Z,68.33
2018-06-04T07:39:50.374Z,67.6
2018-06-04T07:40:50.388Z,67.65
2018-06-04T07:41:50.407Z,67.08
2018-06-04T07:42:50.401Z,67.35
2018-06-04T07:43:56.213Z,68.08
2018-06-04T07:44:50.377Z,67.57
2018-06-04T07:45:50.368Z,67.3
2018-06-04T07:46:50.363Z,68.17
2018-06-04T07:47:50.368Z,68.06
2018-06-04T07:48:50.356Z,67.25
2018-06-04T07:49:50.356Z,66.78
2018-06-04T07:50:50.373Z,66.79
2018-06-04T07:51:50.352Z,67.19
2018-06-04T07:52:50.364Z,67.56
2018-06-04T07:53:50.357Z,67.43
2018-06-04T07:54:50.355Z,67.18
2018-06-04T07:55:50.363Z,66.78
2018-06-04T07:56:50.378Z,66.94
2018-06-04T07:57:50.397Z,67.25
2018-06-04T07:58:50.405Z,67.1
2018-06-04T07:59:50.360Z,67.02
2018-06-04T08:00:50.450Z,67.09
2018-06-04T08:01:50.402Z,67.85
2018-06-04T08:02:50.400Z,67.35
2018-06-04T08:03:50.352Z,67.4
2018-06-04T08:04:50.355Z,66.58
2018-06-04T08:05:50.372Z,65.78
2018-06-04T08:06:50.370Z,65.9
2018-06-04T08:07:50.366Z,65.75
2018-06-04T08:08:50.385Z,65.91
2018-06-04T08:09:50.394Z,66.4
2018-06-04T08:10:50.385Z,65.66
2018-06-04T08:11:50.443Z,64.22
2018-06-04T08:12:50.355Z,64.17
2018-06-04T08:13:50.409Z,64.18
2018-06-04T08:14:50.517Z,64.51
2018-06-04T08:15:50.532Z,64.54
2018-06-04T08:16:50.357Z,64.28
2018-06-04T08:17:50.405Z,64.7
2018-06-04T08:18:50.373Z,65.47
2018-06-04T08:19:50.366Z,64.76
2018-06-04T08:20:50.364Z,64.48
2018-06-04T08:21:50.351Z,65.17
2018-06-04T08:22:50.364Z,64.4
2018-06-04T08:23:50.433Z,64.34
2018-06-04T08:24:50.369Z,64.42
2018-06-04T08:25:50.354Z,64.33
2018-06-04T08:26:50.418Z,63.87
2018-06-04T08:27:50.355Z,64.81
2018-06-04T08:28:50.355Z,63.98
2018-06-04T08:29:50.347Z,63.24
2018-06-04T08:30:50.394Z,63.25
2018-06-04T08:31:50.398Z,63.38
2018-06-04T08:32:50.343Z,63.47
2018-06-04T08:33:50.342Z,63.49
2018-06-04T08:34:50.359Z,62.22
2018-06-04T08:35:50.351Z,63.21
2018-06-04T08:36:50.383Z,63.2
2018-06-04T08:37:50.358Z,62.88
2018-06-04T08:38:50.346Z,63.33
2018-06-04T08:39:50.353Z,63.1
2018-06-04T08:40:50.417Z,63.44
2018-06-04T08:41:50.534Z,62.49
2018-06-04T08:42:50.374Z,62.6
2018-06-04T08:43:50.342Z,62.95
2018-06-04T08:44:50.358Z,63.86
2018-06-04T08:45:50.388Z,63.61
2018-06-04T08:46:50.638Z,64.21
2018-06-04T08:47:50.401Z,62.63
2018-06-04T08:48:50.347Z,63.35
2018-06-04T08:49:50.351Z,62.33
2018-06-04T08:50:50.371Z,61.99
2018-06-04T08:51:50.335Z,61.86
2018-06-04T08:52:50.363Z,62.23
2018-06-04T08:53:50.348Z,62
2018-06-04T08:54:50.374Z,61.82
2018-06-04T08:55:50.337Z,61.49
2018-06-04T08:56:50.357Z,62.41
2018-06-04T08:57:50.349Z,62.15
2018-06-04T08:58:50.372Z,61.44
2018-06-04T08:59:50.336Z,61.09
2018-06-04T09:00:50.351Z,61.51
2018-06-04T09:01:50.338Z,61.12
2018-06-04T09:02:50.403Z,61.71
2018-06-04T09:03:50.460Z,61.83
2018-06-04T09:04:50.359Z,61.55
2018-06-04T09:05:50.407Z,61.39
2018-06-04T09:06:50.333Z,61.28
2018-06-04T09:07:50.535Z,61.29
2018-06-04T09:08:50.347Z,61.86
2018-06-04T09:09:50.414Z,61.66
2018-06-04T09:10:50.349Z,60.87
2018-06-04T09:11:50.344Z,60.99
2018-06-04T09:12:50.352Z,61.11
2018-06-04T09:13:50.413Z,60.11
2018-06-04T09:14:50.354Z,60.09
2018-06-04T09:15:50.429Z,60
2018-06-04T09:16:50.526Z,60.11
2018-06-04T09:17:50.340Z,60.09
2018-06-04T09:18:50.343Z,59.71
2018-06-04T09:19:50.339Z,58.99
2018-06-04T09:20:50.326Z,58.94
2018-06-04T09:21:50.354Z,59.94
2018-06-04T09:22:50.342Z,59.38
2018-06-04T09:23:50.369Z,59.32
2018-06-04T09:24:50.361Z,58.65
2018-06-04T09:25:50.353Z,58.34
2018-06-04T09:26:50.361Z,58.82
2018-06-04T09:27:50.338Z,59.01
2018-06-04T09:28:50.377Z,58.85
2018-06-04T09:29:50.339Z,58.99
2018-06-04T09:30:50.340Z,58.47
2018-06-04T09:31:50.339Z,58.06
2018-06-04T09:32:50.426Z,57.98
2018-06-04T09:33:50.415Z,58.49
2018-06-04T09:34:50.363Z,58.19
2018-06-04T09:35:50.315Z,58.35
2018-06-04T09:36:50.338Z,58.39
2018-06-04T09:37:50.346Z,57.8
2018-06-04T09:38:50.376Z,57.24
2018-06-04T09:39:50.343Z,57.55
2018-06-04T09:40:50.449Z,57.76
2018-06-04T09:41:50.352Z,57.54
2018-06-04T09:42:50.404Z,56.64
2018-06-04T09:43:50.321Z,57.16
2018-06-04T09:44:50.343Z,56.89
2018-06-04T09:45:50.368Z,58.01
2018-06-04T09:46:50.435Z,57.93
2018-06-04T09:47:50.333Z,56.15
2018-06-04T09:48:50.339Z,56.52
2018-06-04T09:49:50.466Z,56.57
2018-06-04T09:50:50.353Z,56.55
2018-06-04T09:51:50.332Z,56.28
2018-06-04T09:52:50.558Z,56.39
2018-06-04T09:53:50.565Z,56.04
2018-06-04T09:54:50.344Z,56.37
2018-06-04T09:55:50.360Z,56.11
2018-06-04T09:56:50.321Z,56.26
2018-06-04T09:57:50.516Z,56.23
2018-06-04T09:58:50.375Z,56.6
2018-06-04T09:59:50.389Z,55.78
2018-06-04T10:00:50.452Z,55.7
2018-06-04T10:01:50.336Z,54.79
2018-06-04T10:02:50.339Z,54.88
2018-06-04T10:03:50.528Z,54.78
2018-06-04T10:04:50.324Z,54.42
2018-06-04T10:05:50.346Z,54.21
2018-06-04T10:06:50.348Z,54.47
2018-06-04T10:07:50.331Z,54.83
2018-06-04T10:08:50.327Z,55.3
2018-06-04T10:09:50.355Z,55.32
2018-06-04T10:10:50.343Z,54.99
2018-06-04T10:11:50.320Z,55.79
2018-06-04T10:12:50.325Z,54.87
2018-06-04T10:13:50.315Z,55.06
2018-06-04T10:14:50.325Z,55.14
2018-06-04T10:15:50.333Z,55.84
2018-06-04T10:16:50.337Z,54.92
2018-06-04T10:17:50.339Z,55.83
2018-06-04T10:18:50.327Z,55.92
2018-06-04T10:19:50.378Z,55.36
2018-06-04T10:20:50.343Z,55.13
2018-06-04T10:21:50.369Z,53.29
2018-06-04T10:22:50.351Z,53.72
2018-06-04T10:23:50.369Z,54.07
2018-06-04T10:24:50.342Z,54.05
2018-06-04T10:25:50.346Z,53.39
2018-06-04T10:26:50.309Z,53.54
2018-06-04T10:27:50.385Z,53.34
2018-06-04T10:28:50.351Z,53.66
2018-06-04T10:29:50.592Z,52.87
2018-06-04T10:30:50.493Z,53.33
2018-06-04T10:31:50.319Z,53.39
2018-06-04T10:32:50.360Z,52.99
2018-06-04T10:33:50.380Z,53.6
2018-06-04T10:34:50.333Z,53.03
2018-06-04T10:35:50.381Z,52.65
2018-06-04T10:36:50.342Z,52.31
2018-06-04T10:37:50.392Z,52.82
2018-06-04T10:38:50.331Z,53.22
2018-06-04T10:39:50.330Z,52.82
2018-06-04T10:40:50.467Z,49.99
2018-06-04T10:41:50.321Z,50.5
2018-06-04T10:42:50.369Z,50.95
2018-06-04T10:43:50.326Z,51.62
2018-06-04T10:44:50.315Z,51.46
2018-06-04T10:45:50.319Z,52.44
2018-06-04T10:46:50.729Z,52.84
2018-06-04T10:47:50.350Z,53.33
2018-06-04T10:48:50.332Z,52.59
2018-06-04T10:49:50.333Z,51.61
2018-06-04T10:50:50.366Z,49.54
2018-06-04T10:51:50.347Z,49.8
2018-06-04T10:52:50.420Z,50.74
2018-06-04T10:53:50.396Z,50.98
2018-06-04T10:54:50.316Z,51.64
2018-06-04T10:55:50.472Z,51.13
2018-06-04T10:56:50.322Z,48.79
2018-06-04T10:57:50.309Z,50.34
2018-06-04T10:58:50.322Z,48.97
2018-06-04T10:59:50.299Z,48.65
2018-06-04T11:00:50.312Z,46.51
2018-06-04T11:01:50.320Z,45.65
2018-06-04T11:02:50.349Z,44.94
2018-06-04T11:03:50.322Z,42.26
2018-06-04T11:04:50.335Z,42.81
2018-06-04T11:05:50.340Z,42.74
2018-06-04T11:06:50.298Z,44.3
2018-06-04T11:07:50.368Z,45.36
2018-06-04T11:08:50.309Z,45.69
2018-06-04T11:09:50.353Z,42.94
2018-06-04T11:10:50.352Z,40.25
2018-06-04T11:11:50.298Z,41.42
2018-06-04T11:12:50.547Z,41.36
2018-06-04T11:13:50.337Z,39.86
2018-06-04T11:14:50.299Z,38.96
2018-06-04T11:15:51.007Z,40.22
2018-06-04T11:16:50.339Z,41.27
2018-06-04T11:17:50.307Z,40.7
2018-06-04T11:18:50.315Z,39.88
2018-06-04T11:19:50.308Z,39.14
2018-06-04T11:20:50.338Z,38.37
2018-06-04T11:21:50.293Z,37.79
2018-06-04T11:22:50.338Z,37.45
2018-06-04T11:23:50.296Z,38.15
2018-06-04T11:24:50.323Z,39.23
2018-06-04T11:25:50.336Z,39.38
2018-06-04T11:26:50.306Z,37.19
2018-06-04T11:27:50.334Z,37.51
2018-06-04T11:28:50.315Z,37.95
2018-06-04T11:29:50.313Z,38.55
2018-06-04T11:30:50.322Z,39.69
2018-06-04T11:31:50.324Z,40.23
2018-06-04T11:32:50.316Z,39.33
2018-06-04T11:33:50.307Z,38.54
2018-06-04T11:34:50.331Z,37.71
2018-06-04T11:35:50.319Z,35.82
2018-06-04T11:36:50.448Z,36.96
2018-06-04T11:37:50.451Z,37.18
2018-06-04T11:38:50.308Z,38.22
2018-06-04T11:39:50.443Z,36.75
2018-06-04T11:40:50.286Z,36.15
2018-06-04T11:41:50.321Z,36.42
2018-06-04T11:42:50.296Z,37.79
2018-06-04T11:43:50.431Z,37.29
2018-06-04T11:44:50.338Z,38.41
2018-06-04T11:45:50.352Z,38.69
2018-06-04T11:46:50.309Z,37.3
2018-06-04T11:47:50.318Z,37.2
2018-06-04T11:48:50.490Z,36.7
2018-06-04T11:49:50.409Z,37.34
2018-06-04T11:50:50.352Z,42.99
2018-06-04T11:51:50.358Z,43.97
2018-06-04T11:52:50.294Z,43.91
2018-06-04T11:53:50.335Z,44.18
2018-06-04T11:54:50.339Z,44.69
2018-06-04T11:55:50.395Z,43.56
2018-06-04T11:56:50.329Z,43.65
2018-06-04T11:57:50.332Z,43.26
2018-06-04T11:58:50.329Z,43.36
2018-06-04T11:59:50.346Z,43.74
2018-06-04T12:00:50.390Z,40.23
2018-06-04T12:01:50.312Z,40.72
2018-06-04T12:02:50.293Z,42.3
2018-06-04T12:03:50.404Z,42.7
2018-06-04T12:04:50.289Z,42.2
2018-06-04T12:05:50.299Z,42.77
2018-06-04T12:06:50.318Z,42.35
2018-06-04T12:07:50.457Z,42.53
2018-06-04T12:08:50.305Z,43.08
2018-06-04T12:09:50.291Z,43.8
2018-06-04T12:10:50.478Z,42.43
2018-06-04T12:11:50.313Z,42.07
2018-06-04T12:12:50.447Z,40.89
2018-06-04T12:13:50.332Z,39.89
2018-06-04T12:14:50.310Z,39.55
2018-06-04T12:15:50.311Z,37.79
2018-06-04T12:16:50.359Z,37.27
2018-06-04T12:17:50.421Z,37.63
2018-06-04T12:18:50.402Z,38.24
2018-06-04T12:19:50.346Z,39.68
2018-06-04T12:20:50.432Z,37.68
2018-06-04T12:21:50.293Z,37.5
2018-06-04T12:22:50.301Z,37.74
2018-06-04T12:23:50.412Z,37.83
2018-06-04T12:24:50.451Z,37.32
2018-06-04T12:25:50.298Z,36.23
2018-06-04T12:26:50.293Z,35.94
2018-06-04T12:27:50.284Z,36.59
2018-06-04T12:28:50.300Z,36.72
2018-06-04T12:29:50.340Z,37.01
2018-06-04T12:30:50.306Z,35.7
2018-06-04T12:31:50.287Z,36.19
2018-06-04T12:32:50.281Z,36.44
2018-06-04T12:33:50.285Z,36.5
2018-06-04T12:34:50.307Z,37.03
2018-06-04T12:35:50.296Z,38.41
2018-06-04T12:36:50.294Z,39.12
2018-06-04T12:37:50.285Z,39.65
2018-06-04T12:38:50.273Z,39.64
2018-06-04T12:39:50.277Z,39.33
2018-06-04T12:40:50.320Z,39.71
2018-06-04T12:41:50.291Z,38.54
2018-06-04T12:42:50.290Z,38.81
2018-06-04T12:43:50.295Z,38.82
2018-06-04T12:44:50.294Z,38.14
2018-06-04T12:45:50.304Z,39.21
2018-06-04T12:46:50.304Z,38.68
2018-06-04T12:47:50.277Z,38.48
2018-06-04T12:48:50.332Z,38.49
2018-06-04T12:49:50.291Z,38.44
2018-06-04T12:50:50.291Z,38.55
2018-06-04T12:51:50.399Z,39.39
2018-06-04T12:52:50.296Z,39.77
2018-06-04T12:53:50.301Z,39.68
2018-06-04T12:54:50.275Z,40.43
2018-06-04T12:55:50.293Z,40.63